createdAt,value
2023-05-13T00:02:07.483Z,9.25
2023-05-13T00:07:08.248Z,9.32
2023-05-13T00:12:09.120Z,9.52
2023-05-13T00:17:10.009Z,9.52
2023-05-13T00:22:10.856Z,9.42
2023-05-13T00:27:11.663Z,9.36
2023-05-13T00:32:12.743Z,9.32
2023-05-13T00:37:13.647Z,9.18
2023-05-13T00:42:15.114Z,9.36
2023-05-13T00:47:16.257Z,9.31
2023-05-13T00:52:17.177Z,9.39
2023-05-13T00:57:18.039Z,9.30
2023-05-13T01:02:26.730Z,9.43
2023-05-13T01:08:01.235Z,9.22
2023-05-13T01:13:12.579Z,9.23
2023-05-13T01:18:20.003Z,9.32
2023-05-13T01:23:20.946Z,9.40
2023-05-13T01:28:22.672Z,9.57
2023-05-13T01:33:25.721Z,9.62
2023-05-13T01:38:27.752Z,9.81
2023-05-13T01:43:29.909Z,9.80
2023-05-13T01:48:30.904Z,9.63
2023-05-13T01:53:32.203Z,9.67
2023-05-13T01:58:33.056Z,9.49
2023-05-13T02:03:34.521Z,9.23
2023-05-13T02:08:35.557Z,9.15
2023-05-13T02:13:37.703Z,9.27
2023-05-13T02:18:38.614Z,9.35
2023-05-13T02:23:39.760Z,9.39
2023-05-13T02:28:40.549Z,9.27
2023-05-13T02:33:41.360Z,9.21
2023-05-13T02:38:42.429Z,9.31
2023-05-13T02:43:43.623Z,9.57
2023-05-13T02:48:44.531Z,10.02
2023-05-13T02:53:45.376Z,10.08
2023-05-13T02:58:46.854Z,10.22
2023-05-13T03:03:48.006Z,10.37
2023-05-13T03:08:48.904Z,10.40
2023-05-13T03:13:49.798Z,10.51
2023-05-13T03:18:50.644Z,10.48
2023-05-13T03:23:52.475Z,10.44
2023-05-13T03:28:53.766Z,10.36
2023-05-13T03:33:55.507Z,10.45
2023-05-13T03:38:56.582Z,10.40
2023-05-13T03:43:57.914Z,10.29
2023-05-13T03:48:59.084Z,10.32
2023-05-13T03:54:01.785Z,10.35
2023-05-13T03:59:02.635Z,10.40
2023-05-13T04:04:03.762Z,10.37
2023-05-13T04:09:05.547Z,10.31
2023-05-13T04:14:06.431Z,10.34
2023-05-13T04:19:07.320Z,10.42
2023-05-13T04:24:08.279Z,10.39
2023-05-13T04:29:09.086Z,10.47
2023-05-13T04:34:10.087Z,10.44
2023-05-13T04:39:11.433Z,10.47
2023-05-13T04:44:12.348Z,10.59
2023-05-13T04:49:13.260Z,10.81
2023-05-13T04:54:14.708Z,10.94
2023-05-13T04:59:15.759Z,11.15
2023-05-13T05:04:16.783Z,11.35
2023-05-13T05:09:19.217Z,11.40
2023-05-13T05:14:21.948Z,11.40
2023-05-13T05:19:24.523Z,11.32
2023-05-13T05:24:27.980Z,11.22
2023-05-13T05:29:29.317Z,11.33
2023-05-13T05:34:30.622Z,11.61
2023-05-13T05:39:31.848Z,11.71
2023-05-13T05:44:33.553Z,12.08
2023-05-13T05:49:34.741Z,12.52
2023-05-13T05:54:36.191Z,12.57
2023-05-13T05:59:37.171Z,12.78
2023-05-13T06:04:38.104Z,12.92
2023-05-13T06:09:39.826Z,13.24
2023-05-13T06:14:40.924Z,13.38
2023-05-13T06:19:43.571Z,13.27
2023-05-13T06:24:44.417Z,13.50
2023-05-13T06:29:45.671Z,13.67
2023-05-13T06:34:47.617Z,13.91
2023-05-13T06:39:48.796Z,14.13
2023-05-13T06:44:49.845Z,14.18
2023-05-13T06:49:50.704Z,14.16
2023-05-13T06:54:51.849Z,14.53
2023-05-13T06:59:52.659Z,14.35
2023-05-13T07:04:53.449Z,14.47
2023-05-13T07:09:54.231Z,14.39
2023-05-13T07:14:55.265Z,14.47
2023-05-13T07:19:56.074Z,14.33
2023-05-13T07:24:57.359Z,14.51
2023-05-13T07:29:58.192Z,14.31
2023-05-13T07:34:59.049Z,14.71
2023-05-13T07:40:00.041Z,14.60
2023-05-13T07:45:01.617Z,14.28
2023-05-13T07:50:02.682Z,13.94
2023-05-13T07:55:05.040Z,13.92
2023-05-13T08:00:06.995Z,14.48
2023-05-13T08:05:13.698Z,14.57
2023-05-13T08:10:14.700Z,14.79
2023-05-13T08:15:16.236Z,15.04
2023-05-13T08:20:17.037Z,15.05
2023-05-13T08:25:18.485Z,15.34
2023-05-13T08:30:19.310Z,15.23
2023-05-13T08:35:21.172Z,15.20
2023-05-13T08:40:22.283Z,15.28
2023-05-13T08:45:27.922Z,15.11
2023-05-13T08:50:29.179Z,15.32
2023-05-13T08:55:29.985Z,15.10
2023-05-13T09:00:31.923Z,15.31
2023-05-13T09:05:32.849Z,15.54
2023-05-13T09:10:33.995Z,15.28
2023-05-13T09:15:34.878Z,15.07
2023-05-13T09:20:36.166Z,15.53
2023-05-13T09:25:38.298Z,15.94
2023-05-13T09:30:46.601Z,15.88
2023-05-13T09:35:54.191Z,15.68
2023-05-13T09:41:00.108Z,16.02
2023-05-13T09:46:03.204Z,16.02
2023-05-13T09:51:04.188Z,15.84
2023-05-13T09:56:09.284Z,15.46
2023-05-13T10:01:10.118Z,15.10
2023-05-13T10:06:11.343Z,14.82
2023-05-13T10:11:15.403Z,14.97
2023-05-13T10:16:18.154Z,15.00
2023-05-13T10:21:18.997Z,15.06
2023-05-13T10:26:23.803Z,15.50
2023-05-13T10:31:26.614Z,16.27
2023-05-13T10:37:02.948Z,16.85
2023-05-13T10:43:01.555Z,16.66
2023-05-13T10:48:06.737Z,17.22
2023-05-13T10:53:20.499Z,17.16
2023-05-13T10:58:27.417Z,17.41
2023-05-13T11:03:29.589Z,17.54
2023-05-13T11:08:41.708Z,17.74
2023-05-13T11:13:42.652Z,18.11
2023-05-13T11:18:43.826Z,17.68
2023-05-13T11:23:52.581Z,18.25
2023-05-13T11:29:06.879Z,17.59
2023-05-13T11:34:10.236Z,16.98
2023-05-13T11:39:13.709Z,17.08
2023-05-13T11:44:19.721Z,17.78
2023-05-13T11:49:41.194Z,18.04
2023-05-13T11:54:51.500Z,18.31
2023-05-13T12:00:06.068Z,17.66
2023-05-13T12:05:11.079Z,16.52
2023-05-13T12:10:12.312Z,15.76
2023-05-13T12:15:17.500Z,14.80
2023-05-13T12:20:23.355Z,14.09
2023-05-13T12:26:00.050Z,13.47
2023-05-13T12:31:05.172Z,14.01
2023-05-13T12:36:32.788Z,14.81
2023-05-13T12:41:40.930Z,15.98
2023-05-13T12:46:54.374Z,16.99
2023-05-13T12:51:56.179Z,16.87
2023-05-13T12:56:57.173Z,16.66
2023-05-13T13:01:58.163Z,16.30
2023-05-13T13:06:58.954Z,15.80
2023-05-13T13:12:05.068Z,15.63
2023-05-13T13:17:06.295Z,15.41
2023-05-13T13:22:07.222Z,15.74
2023-05-13T13:27:10.563Z,15.94
2023-05-13T13:32:12.961Z,16.15
2023-05-13T13:37:13.795Z,16.38
2023-05-13T13:42:14.592Z,16.63
2023-05-13T13:47:15.358Z,17.13
2023-05-13T13:52:16.967Z,17.66
2023-05-13T13:57:23.902Z,17.85
2023-05-13T14:02:26.914Z,17.73
2023-05-13T14:07:27.968Z,17.49
2023-05-13T14:12:28.904Z,17.69
2023-05-13T14:22:48.782Z,16.57
2023-05-13T14:27:50.467Z,16.04
2023-05-13T14:32:55.372Z,15.76
2023-05-13T14:37:57.718Z,15.70
2023-05-13T14:42:58.467Z,15.67
2023-05-13T14:47:59.338Z,15.63
2023-05-13T14:53:00.158Z,15.72
2023-05-13T14:58:02.766Z,15.87
2023-05-13T15:03:04.911Z,15.87
2023-05-13T15:08:07.081Z,16.40
2023-05-13T15:13:07.851Z,16.53
2023-05-13T15:18:08.680Z,16.53
2023-05-13T15:23:09.500Z,16.52
2023-05-13T15:33:21.671Z,16.59
2023-05-13T15:38:22.521Z,16.30
2023-05-13T15:43:23.333Z,16.23
2023-05-13T15:48:24.108Z,16.41
2023-05-13T15:53:25.034Z,16.50
2023-05-13T15:58:25.876Z,16.43
2023-05-13T16:03:26.675Z,16.30
2023-05-13T16:08:27.506Z,16.36
2023-05-13T16:13:28.313Z,16.21
2023-05-13T16:18:29.093Z,16.23
2023-05-13T16:23:29.948Z,16.09
2023-05-13T16:28:30.944Z,16.06
2023-05-13T16:33:32.203Z,15.94
2023-05-13T16:38:34.534Z,15.81
2023-05-13T16:43:35.444Z,15.83
2023-05-13T16:48:36.259Z,15.94
2023-05-13T16:53:37.086Z,15.93
2023-05-13T16:58:38.263Z,16.06
2023-05-13T17:03:39.019Z,15.98
2023-05-13T17:08:39.926Z,16.14
2023-05-13T17:13:44.124Z,15.83
2023-05-13T17:18:44.992Z,16.04
2023-05-13T17:23:45.850Z,15.91
2023-05-13T17:28:47.689Z,15.85
2023-05-13T17:33:48.923Z,15.98
2023-05-13T17:38:50.067Z,15.81
2023-05-13T17:43:51.115Z,15.84
2023-05-13T17:48:52.208Z,15.68
2023-05-13T17:53:53.232Z,15.66
2023-05-13T17:58:54.231Z,15.48
2023-05-13T18:03:55.484Z,15.45
2023-05-13T18:08:56.607Z,15.20
2023-05-13T18:13:57.465Z,15.13
2023-05-13T18:18:58.389Z,14.97
2023-05-13T18:23:59.372Z,14.63
2023-05-13T18:29:00.364Z,14.50
2023-05-13T18:34:02.380Z,14.39
2023-05-13T18:39:03.416Z,14.25
2023-05-13T18:44:04.517Z,14.12
2023-05-13T18:49:05.514Z,14.01
2023-05-13T18:54:06.476Z,13.75
2023-05-13T18:59:07.351Z,13.82
2023-05-13T19:04:08.288Z,13.63
2023-05-13T19:09:09.262Z,13.78
2023-05-13T19:14:10.057Z,13.57
2023-05-13T19:19:11.013Z,13.38
2023-05-13T19:24:12.022Z,13.27
2023-05-13T19:29:12.930Z,13.22
2023-05-13T19:34:13.876Z,13.03
2023-05-13T19:39:14.698Z,12.81
2023-05-13T19:44:15.575Z,12.76
2023-05-13T19:49:16.399Z,12.72
2023-05-13T19:54:17.196Z,12.63
2023-05-13T19:59:18.113Z,12.61
2023-05-13T20:04:18.903Z,12.51
2023-05-13T20:09:20.790Z,12.28
2023-05-13T20:14:27.952Z,12.37
2023-05-13T20:19:28.819Z,12.28
2023-05-13T20:24:29.864Z,12.26
2023-05-13T20:29:38.623Z,12.18
2023-05-13T20:34:40.516Z,12.30
2023-05-13T20:39:41.444Z,12.09
2023-05-13T20:44:44.934Z,11.83
2023-05-13T20:49:45.786Z,11.69
2023-05-13T20:54:46.567Z,11.64
2023-05-13T20:59:49.621Z,11.72
2023-05-13T21:04:50.358Z,11.50
2023-05-13T21:09:51.260Z,11.39
2023-05-13T21:14:52.068Z,11.16
2023-05-13T21:19:52.883Z,11.12
2023-05-13T21:24:53.656Z,11.08
2023-05-13T21:29:54.607Z,10.91
2023-05-13T21:34:55.675Z,10.88
2023-05-13T21:39:56.602Z,10.68
2023-05-13T21:44:57.647Z,10.53
2023-05-13T21:49:58.644Z,10.37
2023-05-13T21:54:59.583Z,10.00
2023-05-13T22:00:00.530Z,10.06
2023-05-13T22:05:01.555Z,10.15
2023-05-13T22:10:02.877Z,10.04
2023-05-13T22:15:04.440Z,9.97
2023-05-13T22:20:06.453Z,10.04
2023-05-13T22:25:07.712Z,10.04
2023-05-13T22:30:09.055Z,10.04
2023-05-13T22:35:09.992Z,9.96
2023-05-13T22:40:11.502Z,9.79
2023-05-13T22:45:13.741Z,9.92
2023-05-13T22:50:14.592Z,9.88
2023-05-13T22:55:15.418Z,9.89
2023-05-13T23:00:16.649Z,9.84
2023-05-13T23:05:17.862Z,9.88
2023-05-13T23:10:18.710Z,9.74
2023-05-13T23:15:19.474Z,9.63
2023-05-13T23:20:20.319Z,9.73
2023-05-13T23:25:21.084Z,9.86
2023-05-13T23:30:22.235Z,9.74
2023-05-13T23:35:23.179Z,9.65
2023-05-13T23:40:24.243Z,9.69
2023-05-13T23:45:25.458Z,9.61
2023-05-13T23:50:26.419Z,9.66
2023-05-13T23:55:27.270Z,9.62
